DucheSS Of Scandinavia — OUZI2 — position and weather

sailwx.info

Track history (hours):
 
Tides and Currents Weather Stations Pressure Air Temp Water Temp Dewpoint Dewpoint Depression Visibility Wind Speed Wind Dir Waves Ship Positions

DucheSS Of Scandinavia

Operator: DFDS A/S

Last reported at 2016-May-27 23:29 UTC. Time now 2016-May-28 00:06 UTC.
Position N 59°06' E 010°14'.

Length 134 m; draft 5.2 m.

Type: Passenger vessel. MMSI: 219002929.

Date/timePositionNaut miles runAvg speedWind from/ knotsBaromVisibWave heightAir tempDewpointWater temp
2016-May-27 23:29N 59°06' E 010°14'0 0.0
2016-May-27 22:33N 59°06' E 010°14'0 0.0
2016-May-27 21:33N 59°06' E 010°14'0 0.0
2016-May-27 20:31N 59°06' E 010°14'0 0.1
2016-May-27 19:33N 59°06' E 010°14'2 2.0
2016-May-27 18:34N 59°04' E 010°15'1313.5
2016-May-27 17:34N 59°01' E 010°40'1515.0
2016-May-27 16:34N 58°56' E 011°08'1 1.2
2016-May-27 15:34N 58°56' E 011°05'1514.8
2016-May-27 14:34N 59°01' E 010°38'1313.5
2016-May-27 13:33N 59°06' E 010°14'1 1.4
2016-May-27 12:33N 59°08' E 010°14'10 9.8
2016-May-27 11:34N 59°01' E 010°27'1515.4
2016-May-27 10:34N 59°00' E 010°57'8 7.9
2016-May-27 09:34N 58°56' E 011°10'5 5.1
2016-May-27 08:34N 58°58' E 011°01'1414.2
2016-May-27 07:34N 59°01' E 010°34'1212.3
2016-May-27 06:33N 59°07' E 010°14'1 0.6
2016-May-27 05:34N 59°06' E 010°14'0 0.1
2016-May-27 04:32N 59°06' E 010°14'0 0.0
2016-May-27 03:32N 59°06' E 010°14'0 0.0
2016-May-27 02:33N 59°06' E 010°14'0 0.0
2016-May-27 01:31N 59°06' E 010°14'0 0.0
2016-May-27 00:31N 59°06' E 010°14'0 0.0
2016-May-26 23:32N 59°06' E 010°14'0 0.0
2016-May-26 22:33N 59°06' E 010°14'0 0.0
2016-May-26 21:28N 59°06' E 010°14'0 0.0
2016-May-26 20:22N 59°06' E 010°14'1 1.3
2016-May-26 19:32N 59°07' E 010°14'4 4.0
2016-May-26 18:34N 59°03' E 010°15'1413.8
2016-May-26 17:33N 59°01' E 010°42'1414.4
2016-May-26 16:33N 58°56' E 011°08'2 1.7
2016-May-26 15:34N 58°56' E 011°05'1414.0
2016-May-26 14:34N 58°60' E 010°38'1313.3
2016-May-26 13:33N 59°05' E 010°14'3 2.6
2016-May-26 12:34N 59°08' E 010°14'10 9.5
2016-May-26 11:34N 59°01' E 010°27'1615.7
2016-May-26 10:34N 59°00' E 010°57'8 7.9
2016-May-26 09:34N 58°56' E 011°10'4 4.0
2016-May-26 08:34N 58°57' E 011°03'1515.2
2016-May-26 07:34N 59°01' E 010°34'1212.3
2016-May-26 06:33N 59°07' E 010°14'1 0.9
2016-May-26 05:34N 59°06' E 010°14'0 0.2
2016-May-26 04:28N 59°06' E 010°14'0 0.0
2016-May-26 03:31N 59°06' E 010°14'0 0.0
2016-May-26 02:32N 59°06' E 010°14'0 0.0
2016-May-26 01:33N 59°06' E 010°14'0 0.0
2016-May-26 00:33N 59°06' E 010°14'0 0.0
2016-May-25 23:31N 59°06' E 010°14'0 0.0
2016-May-25 22:32N 59°06' E 010°14'0 0.0
2016-May-25 21:32N 59°06' E 010°14'0 0.0
2016-May-25 20:33N 59°06' E 010°14'0 0.0
2016-May-25 19:33N 59°06' E 010°14'2 1.9
2016-May-25 18:34N 59°04' E 010°15'1414.2
2016-May-25 17:34N 59°01' E 010°42'1514.6
2016-May-25 16:34N 58°56' E 011°08'1 1.4
2016-May-25 15:34N 58°56' E 011°05'1615.7
2016-May-25 14:34N 59°01' E 010°36'1312.9
2016-May-25 13:33N 59°07' E 010°14'1 0.9
2016-May-25 12:33N 59°08' E 010°14'9 9.2
2016-May-25 11:34N 59°01' E 010°26'1615.6
2016-May-25 10:34N 59°00' E 010°56'8 8.4
2016-May-25 09:34N 58°56' E 011°10'4 3.8
2016-May-25 08:34N 58°57' E 011°03'1515.3
2016-May-25 07:34N 59°01' E 010°34'1212.2
2016-May-25 06:32N 59°07' E 010°14'0 0.2
2016-May-25 05:33N 59°07' E 010°14'1 1.1
2016-May-25 04:33N 59°06' E 010°14'0 0.0
2016-May-25 02:22N 59°06' E 010°14'0 0.0
2016-May-25 00:32N 59°06' E 010°14'0 0.0
2016-May-24 23:24N 59°06' E 010°14'0 0.0
2016-May-24 22:22N 59°06' E 010°14'0 0.0
2016-May-24 21:28N 59°06' E 010°14'0 0.0
2016-May-24 20:26N 59°06' E 010°14'0 0.0
2016-May-24 19:33N 59°06' E 010°14'1 1.3
2016-May-24 18:33N 59°05' E 010°15'1413.8
2016-May-24 17:34N 59°01' E 010°40'1514.8
2016-May-24 16:33N 58°56' E 011°07'1 1.1
2016-May-24 15:34N 58°56' E 011°05'1514.8
2016-May-24 14:34N 59°01' E 010°38'1312.9
2016-May-24 13:34N 59°05' E 010°14'2 2.4
2016-May-24 12:33N 59°08' E 010°14'9 8.9
2016-May-24 11:34N 59°01' E 010°25'1616.2
2016-May-24 10:34N 59°00' E 010°56'8 8.2
2016-May-24 09:34N 58°56' E 011°10'5 4.5
2016-May-24 08:33N 58°58' E 011°02'1515.3
2016-May-24 07:33N 59°01' E 010°33'1211.8
2016-May-24 06:33N 59°07' E 010°14'1 0.8
2016-May-24 05:34N 59°06' E 010°14'0 0.1
2016-May-24 04:30N 59°06' E 010°14'0 0.0
2016-May-24 03:31N 59°06' E 010°14'0 0.0
2016-May-24 02:26N 59°06' E 010°14'0 0.0
2016-May-24 01:32N 59°06' E 010°14'0 0.0
2016-May-24 00:33N 59°06' E 010°14'0 0.0
2016-May-23 23:31N 59°06' E 010°14'0 0.0
2016-May-23 22:31N 59°06' E 010°14'0 0.0
2016-May-23 21:32N 59°06' E 010°14'0 0.0
2016-May-23 20:33N 59°06' E 010°14'0 0.2
2016-May-23 19:34N 59°06' E 010°14'2 2.4
2016-May-23 18:33N 59°04' E 010°15'1414.1
2016-May-23 17:34N 59°01' E 010°42'1514.9
2016-May-23 16:33N 58°56' E 011°09'2 2.0
2016-May-23 15:34N 58°56' E 011°05'1615.7
2016-May-23 14:34N 59°01' E 010°36'1312.7
2016-May-23 13:34N 59°06' E 010°14'1 1.1
2016-May-23 12:34N 59°08' E 010°14'9 9.0
2016-May-23 11:34N 59°01' E 010°25'1515.1
2016-May-23 10:33N 59°01' E 010°55'9 9.2
2016-May-23 09:34N 58°56' E 011°10'5 4.7
2016-May-23 08:34N 58°58' E 011°02'1515.0
2016-May-23 07:34N 59°01' E 010°34'1211.8
2016-May-23 06:32N 59°07' E 010°14'1 1.0
2016-May-23 05:33N 59°06' E 010°14'0 0.0
2016-May-23 04:25N 59°06' E 010°14'0 0.0
2016-May-23 03:32N 59°06' E 010°14'0 0.0
2016-May-23 02:32N 59°06' E 010°14'0 0.0
2016-May-23 01:33N 59°06' E 010°14'0 0.0
2016-May-23 00:28N 59°06' E 010°14'0 0.0
2016-May-22 23:28N 59°06' E 010°14'0 0.0
2016-May-22 22:32N 59°06' E 010°14'0 0.0
2016-May-22 21:30N 59°06' E 010°14'0 0.0
2016-May-22 20:33N 59°06' E 010°14'0 0.0
2016-May-22 19:34N 59°06' E 010°14'1 1.1
2016-May-22 18:34N 59°05' E 010°14'1413.7
2016-May-22 17:34N 59°01' E 010°40'1515.2
2016-May-22 16:34N 58°56' E 011°08'1 1.0
2016-May-22 15:34N 58°56' E 011°06'1514.9
2016-May-22 14:33N 59°01' E 010°38'1313.2
2016-May-22 13:34N 59°05' E 010°14'2 2.2
2016-May-22 12:34N 59°08' E 010°14'10 9.6
2016-May-22 11:34N 59°01' E 010°27'1615.5
2016-May-22 10:34N 59°00' E 010°57'8 7.9
2016-May-22 09:34N 58°56' E 011°10'4 4.1
2016-May-22 08:34N 58°58' E 011°03'1615.6
2016-May-22 07:34N 59°01' E 010°33'1211.7
2016-May-22 06:32N 59°07' E 010°14'1 1.1
2016-May-22 05:34N 59°06' E 010°14'0 0.0
2016-May-22 04:25N 59°06' E 010°14'0 0.0
2016-May-22 03:31N 59°06' E 010°14'0 0.0
2016-May-22 02:32N 59°06' E 010°14'0 0.0
2016-May-22 01:33N 59°06' E 010°14'0 0.0
2016-May-22 00:33N 59°06' E 010°14'0 0.0
2016-May-21 23:31N 59°06' E 010°14'0 0.0
2016-May-21 22:29N 59°06' E 010°14'0 0.0
2016-May-21 21:32N 59°06' E 010°14'0 0.0
2016-May-21 20:27N 59°06' E 010°14'0 0.0
2016-May-21 19:33N 59°06' E 010°14'1 1.0
2016-May-21 18:34N 59°05' E 010°14'1413.7
2016-May-21 17:34N 59°01' E 010°40'1515.3
2016-May-21 16:34N 58°56' E 011°08'1 1.3
2016-May-21 15:34N 58°56' E 011°05'1514.8
2016-May-21 14:34N 59°01' E 010°38'1313.2
2016-May-21 13:33N 59°06' E 010°14'1 1.5
2016-May-21 12:34N 59°08' E 010°14'1010.0
2016-May-21 11:34N 59°01' E 010°28'1414.2
2016-May-21 10:34N 59°00' E 010°55'9 8.9
2016-May-21 09:34N 58°56' E 011°10'5 5.2
2016-May-21 08:34N 58°59' E 011°01'1615.9
2016-May-21 07:33N 59°00' E 010°31'1111.3
2016-May-21 06:33N 59°08' E 010°14'0 0.2
2016-May-21 05:33N 59°07' E 010°14'1 1.2
2016-May-21 04:34N 59°06' E 010°14'0 0.0
2016-May-21 03:33N 59°06' E 010°14'0 0.0
2016-May-21 02:33N 59°06' E 010°14'0 0.0
2016-May-21 01:34N 59°06' E 010°14'0 0.0
2016-May-21 00:34N 59°06' E 010°14'0 0.0
2016-May-20 23:34N 59°06' E 010°14'0 0.0
2016-May-20 22:33N 59°06' E 010°14'0 0.0
2016-May-20 21:34N 59°06' E 010°14'0 0.0
2016-May-20 20:33N 59°06' E 010°14'1 1.1
2016-May-20 19:34N 59°07' E 010°14'4 3.8
2016-May-20 18:34N 59°04' E 010°15'1413.6
2016-May-20 17:33N 59°01' E 010°41'1514.6
2016-May-20 16:33N 58°56' E 011°08'1 1.3
2016-May-20 15:33N 58°56' E 011°05'1414.3
2016-May-20 14:34N 59°01' E 010°39'1413.6
2016-May-20 13:33N 59°06' E 010°14'2 1.7
2016-May-20 12:33N 59°08' E 010°14'1010.2
2016-May-20 11:34N 59°01' E 010°28'1413.9
2016-May-20 10:34N 59°01' E 010°55'9 9.0
2016-May-20 09:33N 58°56' E 011°10'7 7.1
2016-May-20 08:33N 58°60' E 010°59'1312.7
2016-May-20 07:34N 59°01' E 010°34'1212.3
2016-May-20 06:33N 59°07' E 010°14'1 1.0
2016-May-20 05:34N 59°06' E 010°14'0 0.1
2016-May-20 04:32N 59°06' E 010°14'0 0.0
2016-May-20 03:33N 59°06' E 010°14'0 0.0
2016-May-20 02:30N 59°06' E 010°14'0 0.0
2016-May-20 01:31N 59°06' E 010°14'0 0.0
2016-May-20 00:32N 59°06' E 010°14'0 0.0
2016-May-19 23:32N 59°06' E 010°14'0 0.0
2016-May-19 22:33N 59°06' E 010°14'0 0.0
2016-May-19 21:34N 59°06' E 010°14'0 0.0
2016-May-19 20:31N 59°06' E 010°14'1 0.8
2016-May-19 19:34N 59°07' E 010°14'3 3.1
2016-May-19 18:34N 59°04' E 010°15'1413.7
2016-May-19 17:34N 59°01' E 010°41'1514.6
2016-May-19 16:34N 58°56' E 011°07'1 1.3
2016-May-19 15:34N 58°56' E 011°05'1414.0
2016-May-19 14:34N 59°01' E 010°39'1313.4
2016-May-19 13:34N 59°05' E 010°14'2 2.4
2016-May-19 12:34N 59°08' E 010°14'1010.2
2016-May-19 11:34N 59°01' E 010°28'1414.4
2016-May-19 10:34N 59°00' E 010°56'8 8.4
2016-May-19 09:33N 58°56' E 011°10'5 4.7
2016-May-19 08:34N 58°58' E 011°02'1514.6
2016-May-19 07:34N 59°00' E 010°34'1212.3
2016-May-19 06:33N 59°07' E 010°14'1 1.0
2016-May-19 05:34N 59°06' E 010°14'0 0.0
2016-May-19 04:32N 59°06' E 010°14'0 0.0
2016-May-19 03:33N 59°06' E 010°14'0 0.0
2016-May-19 02:33N 59°06' E 010°14'0 0.0
2016-May-19 01:31N 59°06' E 010°14'0 0.0
2016-May-19 00:32N 59°06' E 010°14'0 0.0
2016-May-18 23:32N 59°06' E 010°14'0 0.0
2016-May-18 22:30N 59°06' E 010°14'0 0.0
2016-May-18 21:34N 59°06' E 010°14'0 0.1
2016-May-18 20:34N 59°06' E 010°14'1 1.4
2016-May-18 19:34N 59°08' E 010°14'4 4.4
2016-May-18 18:34N 59°03' E 010°15'1313.4
2016-May-18 17:34N 59°01' E 010°41'1414.4
2016-May-18 16:34N 58°56' E 011°07'1 1.0
2016-May-18 15:34N 58°56' E 011°05'1414.3
2016-May-18 14:34N 59°01' E 010°39'1313.5
2016-May-18 13:34N 59°06' E 010°14'2 2.0
2016-May-18 12:34N 59°08' E 010°14'10 9.9
2016-May-18 11:34N 59°01' E 010°27'1414.5
2016-May-18 10:34N 59°00' E 010°56'9 8.7
2016-May-18 09:34N 58°56' E 011°10'3 2.7
2016-May-18 08:33N 58°56' E 011°05'1515.6
2016-May-18 07:34N 59°01' E 010°36'1313.1
2016-May-18 06:33N 59°07' E 010°14'1 0.8
2016-May-18 05:34N 59°06' E 010°14'0 0.0
2016-May-18 04:32N 59°06' E 010°14'0 0.0
2016-May-18 03:32N 59°06' E 010°14'0 0.0
2016-May-18 02:33N 59°06' E 010°14'0 0.0
2016-May-18 01:31N 59°06' E 010°14'0 0.0
2016-May-18 00:31N 59°06' E 010°14'0 0.0
2016-May-17 23:32N 59°06' E 010°14'  
Track history (hours):
 
Tides and Currents Weather Stations Pressure Air Temp Water Temp Dewpoint Dewpoint Depression Visibility Wind Speed Wind Dir Waves Ship Positions

DucheSS Of Scandinavia

Operator: DFDS A/S

Last reported at 2016-May-27 23:29 UTC. Time now 2016-May-28 00:06 UTC.
Position N 59°06' E 010°14'.

Length 134 m; draft 5.2 m.

Type: Passenger vessel. MMSI: 219002929.

Date/timePositionNaut miles runAvg speedWind from/ knotsBaromVisibWave heightAir tempDewpointWater temp
2016-May-27 23:29N 59°06' E 010°14'0 0.0
2016-May-27 22:33N 59°06' E 010°14'0 0.0
2016-May-27 21:33N 59°06' E 010°14'0 0.0
2016-May-27 20:31N 59°06' E 010°14'0 0.1
2016-May-27 19:33N 59°06' E 010°14'2 2.0
2016-May-27 18:34N 59°04' E 010°15'1313.5
2016-May-27 17:34N 59°01' E 010°40'1515.0
2016-May-27 16:34N 58°56' E 011°08'1 1.2
2016-May-27 15:34N 58°56' E 011°05'1514.8
2016-May-27 14:34N 59°01' E 010°38'1313.5
2016-May-27 13:33N 59°06' E 010°14'1 1.4
2016-May-27 12:33N 59°08' E 010°14'10 9.8
2016-May-27 11:34N 59°01' E 010°27'1515.4
2016-May-27 10:34N 59°00' E 010°57'8 7.9
2016-May-27 09:34N 58°56' E 011°10'5 5.1
2016-May-27 08:34N 58°58' E 011°01'1414.2
2016-May-27 07:34N 59°01' E 010°34'1212.3
2016-May-27 06:33N 59°07' E 010°14'1 0.6
2016-May-27 05:34N 59°06' E 010°14'0 0.1
2016-May-27 04:32N 59°06' E 010°14'0 0.0
2016-May-27 03:32N 59°06' E 010°14'0 0.0
2016-May-27 02:33N 59°06' E 010°14'0 0.0
2016-May-27 01:31N 59°06' E 010°14'0 0.0
2016-May-27 00:31N 59°06' E 010°14'0 0.0
2016-May-26 23:32N 59°06' E 010°14'0 0.0
2016-May-26 22:33N 59°06' E 010°14'0 0.0
2016-May-26 21:28N 59°06' E 010°14'0 0.0
2016-May-26 20:22N 59°06' E 010°14'1 1.3
2016-May-26 19:32N 59°07' E 010°14'4 4.0
2016-May-26 18:34N 59°03' E 010°15'1413.8
2016-May-26 17:33N 59°01' E 010°42'1414.4
2016-May-26 16:33N 58°56' E 011°08'2 1.7
2016-May-26 15:34N 58°56' E 011°05'1414.0
2016-May-26 14:34N 58°60' E 010°38'1313.3
2016-May-26 13:33N 59°05' E 010°14'3 2.6
2016-May-26 12:34N 59°08' E 010°14'10 9.5
2016-May-26 11:34N 59°01' E 010°27'1615.7
2016-May-26 10:34N 59°00' E 010°57'8 7.9
2016-May-26 09:34N 58°56' E 011°10'4 4.0
2016-May-26 08:34N 58°57' E 011°03'1515.2
2016-May-26 07:34N 59°01' E 010°34'1212.3
2016-May-26 06:33N 59°07' E 010°14'1 0.9
2016-May-26 05:34N 59°06' E 010°14'0 0.2
2016-May-26 04:28N 59°06' E 010°14'0 0.0
2016-May-26 03:31N 59°06' E 010°14'0 0.0
2016-May-26 02:32N 59°06' E 010°14'0 0.0
2016-May-26 01:33N 59°06' E 010°14'0 0.0
2016-May-26 00:33N 59°06' E 010°14'0 0.0
2016-May-25 23:31N 59°06' E 010°14'0 0.0
2016-May-25 22:32N 59°06' E 010°14'0 0.0
2016-May-25 21:32N 59°06' E 010°14'0 0.0
2016-May-25 20:33N 59°06' E 010°14'0 0.0
2016-May-25 19:33N 59°06' E 010°14'2 1.9
2016-May-25 18:34N 59°04' E 010°15'1414.2
2016-May-25 17:34N 59°01' E 010°42'1514.6
2016-May-25 16:34N 58°56' E 011°08'1 1.4
2016-May-25 15:34N 58°56' E 011°05'1615.7
2016-May-25 14:34N 59°01' E 010°36'1312.9
2016-May-25 13:33N 59°07' E 010°14'1 0.9
2016-May-25 12:33N 59°08' E 010°14'9 9.2
2016-May-25 11:34N 59°01' E 010°26'1615.6
2016-May-25 10:34N 59°00' E 010°56'8 8.4
2016-May-25 09:34N 58°56' E 011°10'4 3.8
2016-May-25 08:34N 58°57' E 011°03'1515.3
2016-May-25 07:34N 59°01' E 010°34'1212.2
2016-May-25 06:32N 59°07' E 010°14'0 0.2
2016-May-25 05:33N 59°07' E 010°14'1 1.1
2016-May-25 04:33N 59°06' E 010°14'0 0.0
2016-May-25 02:22N 59°06' E 010°14'0 0.0
2016-May-25 00:32N 59°06' E 010°14'0 0.0
2016-May-24 23:24N 59°06' E 010°14'0 0.0
2016-May-24 22:22N 59°06' E 010°14'0 0.0
2016-May-24 21:28N 59°06' E 010°14'0 0.0
2016-May-24 20:26N 59°06' E 010°14'0 0.0
2016-May-24 19:33N 59°06' E 010°14'1 1.3
2016-May-24 18:33N 59°05' E 010°15'1413.8
2016-May-24 17:34N 59°01' E 010°40'1514.8
2016-May-24 16:33N 58°56' E 011°07'1 1.1
2016-May-24 15:34N 58°56' E 011°05'1514.8
2016-May-24 14:34N 59°01' E 010°38'1312.9
2016-May-24 13:34N 59°05' E 010°14'2 2.4
2016-May-24 12:33N 59°08' E 010°14'9 8.9
2016-May-24 11:34N 59°01' E 010°25'1616.2
2016-May-24 10:34N 59°00' E 010°56'8 8.2
2016-May-24 09:34N 58°56' E 011°10'5 4.5
2016-May-24 08:33N 58°58' E 011°02'1515.3
2016-May-24 07:33N 59°01' E 010°33'1211.8
2016-May-24 06:33N 59°07' E 010°14'1 0.8
2016-May-24 05:34N 59°06' E 010°14'0 0.1
2016-May-24 04:30N 59°06' E 010°14'0 0.0
2016-May-24 03:31N 59°06' E 010°14'0 0.0
2016-May-24 02:26N 59°06' E 010°14'0 0.0
2016-May-24 01:32N 59°06' E 010°14'0 0.0
2016-May-24 00:33N 59°06' E 010°14'0 0.0
2016-May-23 23:31N 59°06' E 010°14'0 0.0
2016-May-23 22:31N 59°06' E 010°14'0 0.0
2016-May-23 21:32N 59°06' E 010°14'0 0.0
2016-May-23 20:33N 59°06' E 010°14'0 0.2
2016-May-23 19:34N 59°06' E 010°14'2 2.4
2016-May-23 18:33N 59°04' E 010°15'1414.1
2016-May-23 17:34N 59°01' E 010°42'1514.9
2016-May-23 16:33N 58°56' E 011°09'2 2.0
2016-May-23 15:34N 58°56' E 011°05'1615.7
2016-May-23 14:34N 59°01' E 010°36'1312.7
2016-May-23 13:34N 59°06' E 010°14'1 1.1
2016-May-23 12:34N 59°08' E 010°14'9 9.0
2016-May-23 11:34N 59°01' E 010°25'1515.1
2016-May-23 10:33N 59°01' E 010°55'9 9.2
2016-May-23 09:34N 58°56' E 011°10'5 4.7
2016-May-23 08:34N 58°58' E 011°02'1515.0
2016-May-23 07:34N 59°01' E 010°34'1211.8
2016-May-23 06:32N 59°07' E 010°14'1 1.0
2016-May-23 05:33N 59°06' E 010°14'0 0.0
2016-May-23 04:25N 59°06' E 010°14'0 0.0
2016-May-23 03:32N 59°06' E 010°14'0 0.0
2016-May-23 02:32N 59°06' E 010°14'0 0.0
2016-May-23 01:33N 59°06' E 010°14'0 0.0
2016-May-23 00:28N 59°06' E 010°14'0 0.0
2016-May-22 23:28N 59°06' E 010°14'0 0.0
2016-May-22 22:32N 59°06' E 010°14'0 0.0
2016-May-22 21:30N 59°06' E 010°14'0 0.0
2016-May-22 20:33N 59°06' E 010°14'0 0.0
2016-May-22 19:34N 59°06' E 010°14'1 1.1
2016-May-22 18:34N 59°05' E 010°14'1413.7
2016-May-22 17:34N 59°01' E 010°40'1515.2
2016-May-22 16:34N 58°56' E 011°08'1 1.0
2016-May-22 15:34N 58°56' E 011°06'1514.9
2016-May-22 14:33N 59°01' E 010°38'1313.2
2016-May-22 13:34N 59°05' E 010°14'2 2.2
2016-May-22 12:34N 59°08' E 010°14'10 9.6
2016-May-22 11:34N 59°01' E 010°27'1615.5
2016-May-22 10:34N 59°00' E 010°57'8 7.9
2016-May-22 09:34N 58°56' E 011°10'4 4.1
2016-May-22 08:34N 58°58' E 011°03'1615.6
2016-May-22 07:34N 59°01' E 010°33'1211.7
2016-May-22 06:32N 59°07' E 010°14'1 1.1
2016-May-22 05:34N 59°06' E 010°14'0 0.0
2016-May-22 04:25N 59°06' E 010°14'0 0.0
2016-May-22 03:31N 59°06' E 010°14'0 0.0
2016-May-22 02:32N 59°06' E 010°14'0 0.0
2016-May-22 01:33N 59°06' E 010°14'0 0.0
2016-May-22 00:33N 59°06' E 010°14'0 0.0
2016-May-21 23:31N 59°06' E 010°14'0 0.0
2016-May-21 22:29N 59°06' E 010°14'0 0.0
2016-May-21 21:32N 59°06' E 010°14'0 0.0
2016-May-21 20:27N 59°06' E 010°14'0 0.0
2016-May-21 19:33N 59°06' E 010°14'1 1.0
2016-May-21 18:34N 59°05' E 010°14'1413.7
2016-May-21 17:34N 59°01' E 010°40'1515.3
2016-May-21 16:34N 58°56' E 011°08'1 1.3
2016-May-21 15:34N 58°56' E 011°05'1514.8
2016-May-21 14:34N 59°01' E 010°38'1313.2
2016-May-21 13:33N 59°06' E 010°14'1 1.5
2016-May-21 12:34N 59°08' E 010°14'1010.0
2016-May-21 11:34N 59°01' E 010°28'1414.2
2016-May-21 10:34N 59°00' E 010°55'9 8.9
2016-May-21 09:34N 58°56' E 011°10'5 5.2
2016-May-21 08:34N 58°59' E 011°01'1615.9
2016-May-21 07:33N 59°00' E 010°31'1111.3
2016-May-21 06:33N 59°08' E 010°14'0 0.2
2016-May-21 05:33N 59°07' E 010°14'1 1.2
2016-May-21 04:34N 59°06' E 010°14'0 0.0
2016-May-21 03:33N 59°06' E 010°14'0 0.0
2016-May-21 02:33N 59°06' E 010°14'0 0.0
2016-May-21 01:34N 59°06' E 010°14'0 0.0
2016-May-21 00:34N 59°06' E 010°14'0 0.0
2016-May-20 23:34N 59°06' E 010°14'0 0.0
2016-May-20 22:33N 59°06' E 010°14'0 0.0
2016-May-20 21:34N 59°06' E 010°14'0 0.0
2016-May-20 20:33N 59°06' E 010°14'1 1.1
2016-May-20 19:34N 59°07' E 010°14'4 3.8
2016-May-20 18:34N 59°04' E 010°15'1413.6
2016-May-20 17:33N 59°01' E 010°41'1514.6
2016-May-20 16:33N 58°56' E 011°08'1 1.3
2016-May-20 15:33N 58°56' E 011°05'1414.3
2016-May-20 14:34N 59°01' E 010°39'1413.6
2016-May-20 13:33N 59°06' E 010°14'2 1.7
2016-May-20 12:33N 59°08' E 010°14'1010.2
2016-May-20 11:34N 59°01' E 010°28'1413.9
2016-May-20 10:34N 59°01' E 010°55'9 9.0
2016-May-20 09:33N 58°56' E 011°10'7 7.1
2016-May-20 08:33N 58°60' E 010°59'1312.7
2016-May-20 07:34N 59°01' E 010°34'1212.3
2016-May-20 06:33N 59°07' E 010°14'1 1.0
2016-May-20 05:34N 59°06' E 010°14'0 0.1
2016-May-20 04:32N 59°06' E 010°14'0 0.0
2016-May-20 03:33N 59°06' E 010°14'0 0.0
2016-May-20 02:30N 59°06' E 010°14'0 0.0
2016-May-20 01:31N 59°06' E 010°14'0 0.0
2016-May-20 00:32N 59°06' E 010°14'0 0.0
2016-May-19 23:32N 59°06' E 010°14'0 0.0
2016-May-19 22:33N 59°06' E 010°14'0 0.0
2016-May-19 21:34N 59°06' E 010°14'0 0.0
2016-May-19 20:31N 59°06' E 010°14'1 0.8
2016-May-19 19:34N 59°07' E 010°14'3 3.1
2016-May-19 18:34N 59°04' E 010°15'1413.7
2016-May-19 17:34N 59°01' E 010°41'1514.6
2016-May-19 16:34N 58°56' E 011°07'1 1.3
2016-May-19 15:34N 58°56' E 011°05'1414.0
2016-May-19 14:34N 59°01' E 010°39'1313.4
2016-May-19 13:34N 59°05' E 010°14'2 2.4
2016-May-19 12:34N 59°08' E 010°14'1010.2
2016-May-19 11:34N 59°01' E 010°28'1414.4
2016-May-19 10:34N 59°00' E 010°56'8 8.4
2016-May-19 09:33N 58°56' E 011°10'5 4.7
2016-May-19 08:34N 58°58' E 011°02'1514.6
2016-May-19 07:34N 59°00' E 010°34'1212.3
2016-May-19 06:33N 59°07' E 010°14'1 1.0
2016-May-19 05:34N 59°06' E 010°14'0 0.0
2016-May-19 04:32N 59°06' E 010°14'0 0.0
2016-May-19 03:33N 59°06' E 010°14'0 0.0
2016-May-19 02:33N 59°06' E 010°14'0 0.0
2016-May-19 01:31N 59°06' E 010°14'0 0.0
2016-May-19 00:32N 59°06' E 010°14'0 0.0
2016-May-18 23:32N 59°06' E 010°14'0 0.0
2016-May-18 22:30N 59°06' E 010°14'0 0.0
2016-May-18 21:34N 59°06' E 010°14'0 0.1
2016-May-18 20:34N 59°06' E 010°14'1 1.4
2016-May-18 19:34N 59°08' E 010°14'4 4.4
2016-May-18 18:34N 59°03' E 010°15'1313.4
2016-May-18 17:34N 59°01' E 010°41'1414.4
2016-May-18 16:34N 58°56' E 011°07'1 1.0
2016-May-18 15:34N 58°56' E 011°05'1414.3
2016-May-18 14:34N 59°01' E 010°39'1313.5
2016-May-18 13:34N 59°06' E 010°14'2 2.0
2016-May-18 12:34N 59°08' E 010°14'10 9.9
2016-May-18 11:34N 59°01' E 010°27'1414.5
2016-May-18 10:34N 59°00' E 010°56'9 8.7
2016-May-18 09:34N 58°56' E 011°10'3 2.7
2016-May-18 08:33N 58°56' E 011°05'1515.6
2016-May-18 07:34N 59°01' E 010°36'1313.1
2016-May-18 06:33N 59°07' E 010°14'1 0.8
2016-May-18 05:34N 59°06' E 010°14'0 0.0
2016-May-18 04:32N 59°06' E 010°14'0 0.0
2016-May-18 03:32N 59°06' E 010°14'0 0.0
2016-May-18 02:33N 59°06' E 010°14'0 0.0
2016-May-18 01:31N 59°06' E 010°14'0 0.0
2016-May-18 00:31N 59°06' E 010°14'0 0.0
2016-May-17 23:32N 59°06' E 010°14'  

Dump ship's entire track history